Terminal Aerodrome Forecast
Issued by NWS

Current Version | Previous Version | Text Only | Print | Product List | Glossary On
Versions: 1 2 3 4 5 6 7 8 9 10 11 12 13 14 15 16 17 18 19 20 21 22
000
FTUS44 KBMX 011700
TAFTOI
TAF
KTOI 011731Z 0118/0218 12003KT P6SM SCT045
     FM020700 00000KT 4SM BR SCT250
     FM021400 12002KT P6SM BKN250=

USA.gov is the U.S. government's official web portal to all federal, state and local government web resources and services.